Latest Weather Observations for Canterbury

IDN60801

Issued at 12:23 pm EDT Monday 26 October 2020 (issued every 10 minutes, with the page automatically refreshed every 10 minutes)

About weather observations | Map of weather stations | Latest weather observations for NSW | Other Formats
Station Details ID: 066194 Name: CANTERBURY RACECOURSE AWS Lat: -33.91 Lon: 151.11 Height: 3.0 m
Data from the previous 72 hours. | See also: Recent months at Canterbury
Date/Time
EDT
Temp
°C
App
Temp
°C
Dew
Point
°C
Rel
Hum
%
Delta-T
°C
Wind Press
QNH
hPa
Press
MSL
hPa
Rain since
9am
mm
Dir  Spd
km/h
Gust
km/h
Spd
kts
Gust
kts
26/12:00pm 14.0 9.3 13.2 95 0.4 SSE 30 52 16 28 - - 2.8
26/11:30am 14.0 9.7 13.2 95 0.4 SSE 28 46 15 25 - - 1.8
26/11:00am 14.2 9.0 12.8 91 0.8 SSE 32 54 17 29 - - 0.8
26/10:46am 14.5 9.3 12.9 90 0.9 SSE 32 50 17 27 - - 0.4
26/10:38am 14.5 9.2 12.4 87 1.1 SSE 32 50 17 27 - - 0.4
26/10:37am 14.5 9.6 12.4 87 1.1 SSE 30 50 16 27 - - 0.4
26/10:30am 14.1 9.1 12.3 89 1.0 SSE 30 44 16 24 - - 0.4
26/10:19am 14.1 9.9 12.5 90 0.9 SSE 26 48 14 26 - - 0.2
26/10:01am 14.4 9.9 12.6 89 1.0 SSE 28 48 15 26 - - 0.0
26/10:00am 14.4 10.3 12.6 89 1.0 SSE 26 48 14 26 - - 0.0
26/09:55am 14.6 10.1 12.6 88 1.1 SSE 28 48 15 26 - - 0.0
26/09:30am 15.6 11.8 12.5 82 1.7 SSE 24 43 13 23 - - 0.0
26/09:00am 15.4 9.9 12.0 80 1.8 SSE 32 52 17 28 - - 20.2
26/08:30am 16.3 9.9 9.5 64 3.5 SSE 33 54 18 29 - - 20.2
26/08:00am 15.6 9.6 10.2 70 2.8 SSE 32 50 17 27 - - 20.2
26/07:40am 14.4 9.2 11.7 84 1.4 SSE 30 48 16 26 - - 20.2
26/07:30am 14.2 9.2 12.2 88 1.1 SSE 30 54 16 29 - - 20.2
26/07:24am 14.3 8.8 12.3 88 1.1 SSE 33 54 18 29 - - 20.2
26/07:19am 14.3 8.9 12.3 88 1.1 SSE 32 52 17 28 - - 20.0
26/07:09am 14.2 8.4 12.6 90 0.9 SE 35 54 19 29 - - 20.0
26/07:08am 14.2 8.7 12.6 90 0.9 SE 33 54 18 29 - - 20.0
26/07:00am 14.2 9.2 12.2 88 1.1 SSE 30 61 16 33 - - 20.0
26/06:54am 14.2 8.9 12.4 89 1.0 SE 32 61 17 33 - - 19.8
26/06:42am 14.7 9.8 12.4 86 1.3 SSE 30 48 16 26 - - 19.8
26/06:31am 14.2 9.2 12.2 88 1.1 SSE 30 48 16 26 - - 19.8
26/06:30am 14.1 8.7 12.3 89 1.0 SSE 32 48 17 26 - - 19.8
26/06:13am 14.3 9.7 12.3 88 1.1 SSE 28 46 15 25 - - 19.0
26/06:00am 14.3 8.9 12.3 88 1.1 SSE 32 46 17 25 - - 18.6
26/05:32am 14.6 10.1 12.5 87 1.1 SSE 28 48 15 26 - - 18.0
26/05:30am 14.7 10.1 12.4 86 1.3 SSE 28 43 15 23 - - 18.0
26/05:11am 14.6 9.1 12.5 87 1.1 SSE 33 57 18 31 - - 17.4
26/05:00am 14.8 8.6 12.5 86 1.3 SSE 37 56 20 30 - - 17.4
26/04:30am 14.7 9.3 12.9 89 1.0 SSE 33 57 18 31 - - 17.4
26/04:00am 14.9 10.1 13.9 94 0.6 SSE 32 56 17 30 - - 17.4
26/03:59am 14.9 10.1 13.9 94 0.6 SSE 32 56 17 30 - - 17.4
26/03:30am 14.9 10.4 13.9 94 0.6 SSE 30 56 16 30 - - 17.0
26/03:23am 15.1 10.9 13.5 90 0.9 SSE 28 56 15 30 - - 16.6
26/03:01am 15.6 11.3 13.1 85 1.4 SSE 28 46 15 25 - - 16.4
26/03:00am 15.7 10.9 13.0 84 1.5 SSE 30 46 16 25 - - 16.4
26/02:40am 15.5 11.1 13.0 85 1.4 SSE 28 50 15 27 - - 16.4
26/02:30am 15.1 11.1 13.1 88 1.1 SSE 26 41 14 22 - - 16.4
26/02:12am 14.7 10.2 12.7 88 1.1 SSE 28 46 15 25 - - 16.4
26/02:00am 14.6 9.9 13.1 91 0.8 SSE 30 50 16 27 - - 16.2
26/01:48am 14.1 9.7 13.0 93 0.6 SSE 28 48 15 26 - - 16.0
26/01:30am 14.2 9.8 12.9 92 0.7 SSE 28 43 15 23 - - 15.4
26/01:09am 14.3 10.2 13.7 96 0.3 SSE 28 46 15 25 - - 14.8
26/01:00am 14.4 11.0 13.8 96 0.3 SSE 24 41 13 22 - - 14.8
26/12:32am 14.5 9.5 13.4 93 0.6 SSE 32 54 17 29 - - 14.4
26/12:30am 14.5 9.9 13.4 93 0.6 SSE 30 46 16 25 - - 14.4
26/12:29am 14.5 9.8 13.2 92 0.7 SSE 30 46 16 25 - - 14.4
26/12:28am 14.5 9.8 13.2 92 0.7 SSE 30 46 16 25 - - 14.4
26/12:10am 14.5 10.5 14.2 98 0.2 SSE 28 48 15 26 - - 14.2
26/12:00am 14.3 10.9 13.8 97 0.3 SSE 24 43 13 23 - - 14.0
 
Date/Time
EDT
Temp
°C
App
Temp
°C
Dew
Point
°C
Rel
Hum
%
Delta-T
°C
Wind Press
QNH
hPa
Press
MSL
hPa
Rain since
9am
mm
Dir  Spd
km/h
Gust
km/h
Spd
kts
Gust
kts
25/11:36pm 14.3 10.2 13.7 96 0.3 SSE 28 54 15 29 - - 13.8
25/11:30pm 14.2 10.0 13.6 96 0.3 SSE 28 43 15 23 - - 13.8
25/11:14pm 14.2 9.9 13.2 94 0.6 SSE 28 52 15 28 - - 13.6
25/11:00pm 14.2 10.3 13.4 95 0.4 S 26 43 14 23 - - 13.4
25/10:30pm 14.6 11.1 13.3 92 0.7 SSE 24 46 13 25 - - 12.6
25/10:13pm 14.6 10.7 12.1 85 1.4 S 24 39 13 21 - - 12.4
25/10:08pm 14.9 10.3 12.2 84 1.5 S 28 52 15 28 - - 12.4
25/10:00pm 15.1 11.3 12.4 84 1.5 S 24 52 13 28 - - 12.4
25/09:46pm 15.0 10.5 12.5 85 1.4 S 28 46 15 25 - - 12.4
25/09:30pm 15.1 11.1 13.1 88 1.1 S 26 43 14 23 - - 12.4
25/09:00pm 14.7 11.1 13.1 90 0.9 S 24 44 13 24 - - 12.4
25/08:30pm 14.6 11.6 13.6 94 0.6 S 22 41 12 22 - - 12.4
25/08:00pm 14.6 11.2 13.8 95 0.4 S 24 37 13 20 - - 12.4
25/07:30pm 14.1 11.6 13.6 97 0.3 SSE 19 30 10 16 - - 12.2
25/07:00pm 13.4 11.5 12.9 97 0.3 SW 15 26 8 14 - - 11.8
25/06:37pm 13.0 8.5 12.7 98 0.2 SSE 28 48 15 26 - - 11.6
25/06:30pm 13.0 8.5 12.5 97 0.3 SSE 28 46 15 25 - - 11.4
25/06:28pm 13.1 9.0 12.6 97 0.3 SSE 26 46 14 25 - - 11.2
25/06:00pm 12.9 10.3 12.1 95 0.4 SSW 17 28 9 15 - - 7.6
25/05:53pm 12.9 10.7 12.0 94 0.5 SSW 15 28 8 15 - - 6.6
25/05:30pm 12.9 11.0 11.8 93 0.6 SW 13 24 7 13 - - 5.0
25/05:23pm 12.9 11.0 11.8 93 0.6 SSW 13 24 7 13 - - 4.8
25/05:00pm 12.8 10.6 12.2 96 0.3 SW 15 24 8 13 - - 3.8
25/04:30pm 12.7 10.0 11.6 93 0.6 SW 17 28 9 15 - - 2.2
25/04:00pm 12.8 9.6 11.4 91 0.7 S 19 32 10 17 - - 0.8
25/03:33pm 13.0 10.0 10.7 86 1.2 SSW 17 28 9 15 - - 0.4
25/03:30pm 13.1 9.7 10.5 84 1.4 SSW 19 28 10 15 - - 0.4
25/03:00pm 13.5 9.7 9.7 78 1.9 S 20 41 11 22 - - 0.0
25/02:30pm 13.6 10.1 10.8 83 1.5 S 20 37 11 20 - - 0.0
25/02:00pm 13.4 9.8 10.4 82 1.6 S 20 35 11 19 - - 0.0
25/01:30pm 14.0 10.3 10.0 77 2.1 S 20 30 11 16 - - 0.0
25/01:00pm 13.9 9.3 9.7 76 2.2 S 24 43 13 23 - - 0.0
25/12:30pm 14.3 9.7 9.7 74 2.4 S 24 44 13 24 - - 0.0
25/12:00pm 14.2 10.5 10.0 76 2.2 S 20 39 11 21 - - 0.0
25/11:37am 14.2 8.8 9.6 74 2.4 S 28 50 15 27 - - 0.0
25/11:30am 14.3 9.3 9.7 74 2.4 S 26 41 14 22 - - 0.0
25/11:00am 14.4 9.9 10.0 75 2.3 S 24 41 13 22 - - 0.0
25/10:30am 14.4 10.4 10.4 77 2.1 S 22 32 12 17 - - 0.0
25/10:00am 14.4 9.6 10.4 77 2.1 S 26 43 14 23 - - 0.0
25/09:30am 14.3 10.9 11.1 81 1.7 S 20 39 11 21 - - 0.0
25/09:15am 14.2 9.2 11.0 81 1.7 S 28 48 15 26 - - 0.0
25/09:00am 14.2 9.9 10.8 80 1.8 SSE 24 39 13 21 - - 16.2
25/08:30am 14.5 9.8 10.7 78 2.0 SSE 26 44 14 24 - - 16.2
25/08:00am 14.7 10.9 9.9 73 2.5 S 20 32 11 17 - - 16.2
25/07:30am 14.3 10.8 10.9 80 1.8 S 20 35 11 19 - - 16.2
25/07:00am 14.0 10.3 11.5 85 1.3 S 22 35 12 19 - - 16.2
25/06:30am 13.8 9.9 12.2 90 0.9 S 24 39 13 21 - - 16.2
25/06:00am 14.1 11.1 12.7 91 0.8 S 20 33 11 18 - - 16.2
25/05:30am 14.2 11.5 12.9 92 0.7 SSE 19 30 10 16 - - 16.2
25/05:00am 14.3 11.5 13.2 93 0.6 SSE 20 37 11 20 - - 16.2
25/04:30am 14.4 11.6 13.3 93 0.6 SSE 20 32 11 17 - - 16.2
25/04:00am 14.4 12.1 13.1 92 0.7 S 17 32 9 17 - - 16.2
25/03:30am 14.4 12.1 13.0 91 0.8 SSE 17 33 9 18 - - 16.2
25/03:00am 14.3 11.4 13.0 92 0.7 SSE 20 37 11 20 - - 16.2
25/02:30am 14.4 11.6 13.3 93 0.6 S 20 35 11 19 - - 16.2
25/02:00am 14.6 11.2 13.6 94 0.6 SSE 24 41 13 22 - - 16.2
25/01:30am 14.4 11.0 13.6 95 0.4 S 24 43 13 23 - - 16.0
25/01:20am 14.4 11.1 13.9 97 0.3 SSE 24 44 13 24 - - 16.0
25/01:00am 14.6 11.8 14.3 98 0.2 SSE 22 39 12 21 - - 15.2
25/12:45am 14.8 12.3 14.2 96 0.3 S 20 33 11 18 - - 13.8
25/12:30am 14.8 12.3 14.0 95 0.4 S 20 35 11 19 - - 13.0
25/12:27am 15.0 12.2 14.2 95 0.5 S 22 43 12 23 - - 13.0
25/12:04am 15.3 11.4 14.3 94 0.6 SSE 28 48 15 26 - - 13.0
25/12:00am 15.5 12.4 14.4 93 0.6 S 24 48 13 26 - - 12.6
 
Date/Time
EDT
Temp
°C
App
Temp
°C
Dew
Point
°C
Rel
Hum
%
Delta-T
°C
Wind Press
QNH
hPa
Press
MSL
hPa
Rain since
9am
mm
Dir  Spd
km/h
Gust
km/h
Spd
kts
Gust
kts
24/11:45pm 15.8 11.9 14.3 91 0.9 S 28 56 15 30 - - 11.4
24/11:30pm 17.4 15.0 15.4 88 1.2 S 22 52 12 28 - - 10.2
24/11:26pm 17.9 18.0 16.6 92 0.8 W 11 50 6 27 - - 10.2
24/11:00pm 18.6 21.5 18.1 97 0.3 CALM 0 0 0 0 - - 10.2
24/10:30pm 18.8 20.3 18.0 95 0.5 N 7 11 4 6 - - 10.2
24/10:00pm 19.0 20.2 18.3 96 0.4 N 9 15 5 8 - - 10.2
24/09:30pm 19.3 20.7 18.6 96 0.4 NNE 9 13 5 7 - - 10.2
24/09:00pm 19.6 21.1 18.9 96 0.4 NNE 9 15 5 8 - - 9.8
24/08:30pm 19.9 21.8 19.7 99 0.1 NNE 9 13 5 7 - - 9.6
24/08:00pm 20.1 22.2 20.1 100 0.0 N 9 13 5 7 - - 9.2
24/07:30pm 20.2 21.8 20.0 99 0.1 NNW 11 17 6 9 - - 8.8
24/07:00pm 20.2 22.0 19.5 96 0.4 NNE 9 17 5 9 - - 8.2
24/06:30pm 20.3 21.7 19.5 95 0.5 NNE 11 17 6 9 - - 7.2
24/06:00pm 20.5 22.8 19.5 94 0.6 N 6 13 3 7 - - 6.6
24/05:53pm 20.5 22.7 19.5 94 0.6 N 7 13 4 7 - - 6.4
24/05:33pm 20.7 22.9 19.5 93 0.8 NW 7 13 4 7 - - 5.6
24/05:30pm 20.7 22.5 19.5 93 0.8 NW 9 15 5 8 - - 5.2
24/05:00pm 21.2 23.3 20.2 94 0.6 N 9 15 5 8 - - 4.6
24/04:30pm 21.0 22.1 19.7 92 0.8 NNE 13 19 7 10 - - 4.4
24/04:00pm 21.4 22.6 20.0 92 0.9 N 13 20 7 11 - - 3.6
24/03:30pm 21.7 23.1 19.6 88 1.3 N 11 17 6 9 - - 3.2
24/03:09pm 22.0 24.9 20.6 92 0.9 NW 6 9 3 5 - - 2.8
24/03:00pm 21.9 25.4 20.4 91 1.0 NNW 2 9 1 5 - - 2.8
24/02:45pm 22.0 23.6 19.9 88 1.3 NW 11 17 6 9 - - 2.0
24/02:30pm 22.5 24.2 20.2 87 1.5 NNW 11 17 6 9 - - 1.0
24/02:00pm 22.1 21.9 19.3 84 1.8 N 19 26 10 14 - - 1.0
24/01:30pm 23.9 22.2 18.1 70 3.6 N 24 37 13 20 - - 0.0
24/01:00pm 24.9 23.9 17.9 65 4.4 N 20 30 11 16 - - 0.0
24/12:30pm 24.9 24.1 18.1 66 4.3 N 19 32 10 17 - - 0.0
24/12:00pm 23.6 23.3 18.3 72 3.3 NNW 17 24 9 13 - - 0.0
24/11:30am 22.8 22.5 18.3 76 2.8 N 17 26 9 14 - - 0.0
24/11:00am 23.5 22.3 17.5 69 3.7 N 20 30 11 16 - - 0.0
24/10:30am 23.3 21.7 17.5 70 3.6 NNW 22 35 12 19 - - 0.0
24/10:00am 23.3 23.3 18.0 72 3.3 NNW 15 20 8 11 - - 0.0
24/09:30am 22.8 23.6 19.0 79 2.4 N 13 19 7 10 - - 0.0
24/09:00am 21.5 22.0 18.3 82 2.0 N 13 20 7 11 - - 7.4
24/08:30am 21.2 22.6 18.6 85 1.6 N 9 13 5 7 - - 7.4
24/08:00am 19.9 20.3 18.2 90 1.1 N 13 19 7 10 - - 7.4
24/07:30am 19.6 19.5 17.9 90 1.0 N 15 20 8 11 - - 7.4
24/07:00am 19.3 20.8 18.8 97 0.3 N 9 13 5 7 - - 7.4
24/06:30am 18.8 20.8 18.8 100 0.0 NE 6 11 3 6 - - 7.4
24/06:24am 18.7 21.8 18.7 100 0.0 CALM 0 7 0 4 - - 7.4
24/06:05am 18.5 21.4 18.3 99 0.1 CALM 0 0 0 0 - - 7.4
24/06:00am 18.6 21.6 18.4 99 0.1 CALM 0 0 0 0 - - 7.4
24/05:30am 18.9 20.9 18.7 99 0.1 ESE 6 9 3 5 - - 7.4
24/05:00am 18.8 21.9 18.6 99 0.1 CALM 0 0 0 0 - - 7.4
24/04:30am 18.9 21.6 18.7 99 0.1 NNW 2 7 1 4 - - 7.4
24/04:05am 19.0 20.8 18.8 99 0.1 NNW 7 13 4 7 - - 7.0
24/04:00am 19.0 20.5 18.8 99 0.1 NNW 9 13 5 7 - - 6.8
24/03:51am 19.1 20.7 19.1 100 0.0 NNW 9 15 5 8 - - 6.4
24/03:42am 19.1 21.0 18.9 99 0.1 NNW 7 13 4 7 - - 5.8
24/03:30am 19.0 20.8 18.8 99 0.1 NNW 7 11 4 6 - - 5.2
24/03:27am 19.0 20.5 18.8 99 0.1 NNW 9 11 5 6 - - 5.2
24/03:23am 19.0 20.5 18.8 99 0.1 N 9 11 5 6 - - 5.0
24/03:00am 19.1 20.3 18.3 95 0.5 SW 9 17 5 9 - - 2.4
24/02:49am 19.3 21.3 17.8 91 0.9 WNW 4 13 2 7 - - 1.2
24/02:30am 19.3 20.2 17.6 90 1.0 NW 9 20 5 11 - - 0.0
24/02:00am 19.2 21.3 17.2 88 1.2 ENE 2 6 1 3 - - 0.0
24/01:30am 19.4 20.8 17.4 88 1.2 NE 6 9 3 5 - - 0.0
24/01:00am 19.1 19.9 17.2 89 1.2 ENE 9 11 5 6 - - 0.0
24/12:30am 19.2 20.3 17.0 87 1.3 E 7 13 4 7 - - 0.0
24/12:00am 19.5 20.7 16.9 85 1.6 N 6 9 3 5 - - 0.0
 
Date/Time
EDT
Temp
°C
App
Temp
°C
Dew
Point
°C
Rel
Hum
%
Delta-T
°C
Wind Press
QNH
hPa
Press
MSL
hPa
Rain since
9am
mm
Dir  Spd
km/h
Gust
km/h
Spd
kts
Gust
kts
23/11:30pm 20.0 21.1 17.2 84 1.7 NE 7 11 4 6 - - 0.0
23/11:00pm 20.3 20.4 17.5 84 1.7 NNE 13 24 7 13 - - 0.0
23/10:30pm 20.3 20.1 17.7 85 1.6 NNE 15 26 8 14 - - 0.0
23/10:00pm 20.3 19.8 17.7 85 1.6 NE 17 33 9 18 - - 0.0
23/09:30pm 20.2 20.0 17.6 85 1.6 NE 15 28 8 15 - - 0.0
23/09:00pm 20.3 19.6 17.3 83 1.8 NE 17 33 9 18 - - 0.0
23/08:30pm 20.5 19.4 17.3 82 2.0 NE 19 35 10 19 - - 0.0
23/08:00pm 20.5 19.3 17.1 81 2.1 NE 19 37 10 20 - - 0.0
23/07:30pm 20.7 19.2 16.7 78 2.4 NE 20 37 11 20 - - 0.0
23/07:00pm 20.9 19.4 16.7 77 2.5 NE 20 35 11 19 - - 0.0
23/06:30pm 21.4 19.5 16.6 74 2.9 NE 22 37 12 20 - - 0.0
23/06:00pm 22.2 21.2 16.5 70 3.5 NE 17 30 9 16 - - 0.0
23/05:30pm 22.9 20.3 16.0 65 4.2 NE 24 43 13 23 - - 0.0
23/05:00pm 23.7 21.1 16.0 62 4.7 ENE 24 39 13 21 - - 0.0
23/04:30pm 23.7 20.8 16.0 62 4.7 NE 26 37 14 20 - - 0.0
23/04:00pm 24.1 22.3 15.9 60 5.0 ENE 20 30 11 16 - - 0.0
23/03:30pm 23.3 20.5 15.4 61 4.7 ENE 24 35 13 19 - - 0.0
23/03:00pm 24.1 21.0 15.6 59 5.1 ENE 26 39 14 21 - - 0.0
23/02:30pm 24.9 22.4 16.1 58 5.4 E 24 35 13 19 - - 0.0
23/02:00pm 24.3 21.4 15.0 56 5.6 ENE 24 33 13 18 - - 0.0
23/01:30pm 26.0 23.9 15.1 51 6.6 E 20 30 11 16 - - 0.0
23/01:00pm 26.3 24.3 15.0 49 6.8 ENE 19 30 10 16 - - 0.0
23/12:30pm 26.3 25.7 15.7 52 6.5 E 13 20 7 11 - - 0.0

Other formats

Comma delimited format used in spreadsheet applications
http://www.bom.gov.au/fwo/IDN60801/IDN60801.94766.axf

JavaScript Object Notation format (JSON) in row-major order
http://www.bom.gov.au/fwo/IDN60801/IDN60801.94766.json

Data quality

Most of these data are generated automatically and are frequently updated. Quality checks on data are not normally performed. It is possible for incorrect values to appear. Refer to information at About Latest Weather Observations and please check the disclaimer before using these data.